Time;durP1;ratioP1;P1;durP2;ratioP2;P2;SDS_P1;SDS_P2;PMS_P1;PMS_P2;Temp;Humidity;BMP_temperature;BMP_pressure;BME280_temperature;BME280_humidity;BME280_pressure;Samples;Min_cycle;Max_cycle;Signal;HPM_P1;HPM_P2
2021/04/07 00:00:33;;;;;;;7.33;2.47;;;1.90;99.90;;;;;;4978484;28;20156;-71
2021/04/07 00:05:30;;;;;;;5.30;2.47;;;1.90;99.90;;;;;;4962644;28;20076;-68
2021/04/07 00:07:57;;;;;;;7.80;2.57;;;1.90;99.90;;;;;;4962828;28;20505;-69
2021/04/07 00:10:28;;;;;;;6.87;2.77;;;1.90;99.90;;;;;;4958001;28;20061;-68
2021/04/07 00:12:55;;;;;;;7.20;2.60;;;1.90;99.90;;;;;;4968957;28;20045;-68
2021/04/07 00:15:24;;;;;;;8.40;2.37;;;1.90;99.90;;;;;;4977368;28;20064;-68
2021/04/07 00:17:51;;;;;;;4.13;2.03;;;1.80;99.90;;;;;;4957914;28;20049;-68
2021/04/07 00:20:22;;;;;;;6.07;2.20;;;1.80;99.90;;;;;;4975575;28;20102;-68
2021/04/07 00:22:49;;;;;;;7.93;3.00;;;1.80;99.90;;;;;;4967798;28;20119;-68
2021/04/07 00:25:18;;;;;;;5.97;2.47;;;1.70;99.90;;;;;;4968672;28;20448;-68
2021/04/07 00:27:52;;;;;;;6.30;2.47;;;1.70;99.90;;;;;;4969676;28;20052;-67
2021/04/07 00:30:20;;;;;;;8.13;2.70;;;1.70;99.90;;;;;;4960821;28;20064;-68
2021/04/07 00:32:46;;;;;;;5.87;2.40;;;1.70;99.90;;;;;;4968673;28;21643;-68
2021/04/07 00:35:14;;;;;;;5.67;2.57;;;1.80;99.90;;;;;;4957383;28;20085;-68
2021/04/07 00:37:41;;;;;;;8.17;3.30;;;1.80;99.90;;;;;;4963112;28;21391;-68
2021/04/07 00:40:08;;;;;;;7.03;2.53;;;1.80;99.90;;;;;;4989105;28;20052;-67
2021/04/07 00:42:37;;;;;;;8.40;2.77;;;1.70;99.90;;;;;;5046354;28;20048;-68
2021/04/07 00:45:05;;;;;;;7.30;2.50;;;1.80;99.90;;;;;;5047010;28;20048;-68
2021/04/07 00:47:31;;;;;;;5.57;2.03;;;1.90;99.90;;;;;;5047082;28;20073;-68
2021/04/07 00:49:58;;;;;;;8.80;2.80;;;1.70;99.90;;;;;;5046738;28;20084;-67
2021/04/07 00:52:25;;;;;;;5.80;2.70;;;1.60;99.90;;;;;;5040244;28;20073;-68
2021/04/07 00:54:52;;;;;;;9.73;2.70;;;1.70;99.90;;;;;;5048626;28;20085;-67
2021/04/07 00:57:20;;;;;;;8.50;3.03;;;1.70;99.90;;;;;;5048429;28;20049;-67
2021/04/07 00:59:47;;;;;;;7.17;2.77;;;1.90;99.90;;;;;;5045611;28;20048;-67
2021/04/07 01:02:15;;;;;;;7.67;2.90;;;1.80;99.90;;;;;;5011416;28;20045;-68
2021/04/07 01:04:42;;;;;;;7.13;2.60;;;1.70;99.90;;;;;;4967640;28;20960;-67
2021/04/07 01:07:11;;;;;;;15.03;3.73;;;1.70;99.90;;;;;;4966661;28;20405;-68
2021/04/07 01:09:38;;;;;;;8.40;3.27;;;1.70;99.90;;;;;;4970666;28;20077;-68
2021/04/07 01:12:06;;;;;;;5.63;2.67;;;1.70;99.90;;;;;;4975192;28;20045;-68
2021/04/07 01:14:33;;;;;;;7.47;3.43;;;1.80;99.90;;;;;;5044462;28;20480;-68
2021/04/07 01:17:01;;;;;;;8.13;3.30;;;1.80;99.90;;;;;;5045196;28;20037;-68
2021/04/07 01:19:29;;;;;;;7.37;3.43;;;1.80;99.90;;;;;;5043479;28;20555;-68
2021/04/07 01:21:56;;;;;;;8.00;3.47;;;1.90;99.90;;;;;;5045637;28;20068;-68
2021/04/07 01:24:24;;;;;;;7.47;3.37;;;1.80;99.90;;;;;;5044479;28;20132;-67
2021/04/07 01:26:51;;;;;;;6.93;3.10;;;1.80;99.90;;;;;;5046188;28;20045;-68
2021/04/07 01:29:17;;;;;;;6.07;2.90;;;1.80;99.90;;;;;;5047297;28;20419;-67
2021/04/07 01:31:45;;;;;;;5.50;2.73;;;1.80;99.90;;;;;;5043855;28;20092;-68
2021/04/07 01:34:18;;;;;;;7.40;3.07;;;1.80;99.90;;;;;;5040816;28;20051;-68
2021/04/07 01:36:44;;;;;;;5.37;2.40;;;1.70;99.90;;;;;;5001994;28;20142;-68
2021/04/07 01:39:11;;;;;;;6.97;2.80;;;1.70;99.90;;;;;;4971826;28;20049;-68
2021/04/07 01:41:38;;;;;;;6.67;2.70;;;1.70;99.90;;;;;;4962886;28;20084;-68
2021/04/07 01:44:06;;;;;;;7.90;3.07;;;1.70;99.90;;;;;;4963868;28;20140;-67
2021/04/07 01:46:34;;;;;;;8.17;3.30;;;1.70;99.90;;;;;;4982758;28;20099;-67
2021/04/07 01:49:01;;;;;;;6.60;3.07;;;1.70;99.90;;;;;;5034674;28;20060;-68
2021/04/07 01:51:28;;;;;;;7.77;3.00;;;1.80;99.90;;;;;;5044061;28;20221;-67
2021/04/07 01:54:01;;;;;;;7.53;2.87;;;1.70;99.90;;;;;;5044546;28;20083;-68
2021/04/07 01:56:28;;;;;;;7.03;3.43;;;1.70;99.90;;;;;;5044935;28;20092;-68
2021/04/07 01:58:59;;;;;;;7.07;3.13;;;1.70;99.90;;;;;;5046878;28;20077;-67
2021/04/07 02:01:26;;;;;;;6.27;2.90;;;1.70;99.90;;;;;;5047085;28;20056;-67
2021/04/07 02:03:53;;;;;;;5.97;2.80;;;1.70;99.90;;;;;;5044995;28;20059;-67
2021/04/07 02:06:19;;;;;;;6.97;2.50;;;1.80;99.90;;;;;;5037639;28;20037;-67
2021/04/07 02:08:46;;;;;;;10.07;3.70;;;1.90;99.90;;;;;;5047055;28;20052;-67
2021/04/07 02:11:12;;;;;;;8.33;2.53;;;1.80;99.90;;;;;;5046893;28;20053;-67
2021/04/07 02:13:39;;;;;;;6.17;2.80;;;1.70;99.90;;;;;;5036102;28;20408;-67
2021/04/07 02:16:14;;;;;;;6.27;2.90;;;1.70;99.90;;;;;;5046435;28;20055;-67
2021/04/07 02:18:42;;;;;;;8.00;2.93;;;1.70;99.90;;;;;;4984311;28;20125;-67
2021/04/07 02:21:10;;;;;;;8.40;3.00;;;1.70;99.90;;;;;;4959691;28;20076;-68
2021/04/07 02:23:37;;;;;;;7.93;3.20;;;1.80;99.90;;;;;;5002713;28;20049;-67
2021/04/07 02:26:04;;;;;;;9.50;3.13;;;1.70;99.90;;;;;;5044702;28;20044;-67
2021/04/07 02:28:31;;;;;;;8.13;3.00;;;1.70;99.90;;;;;;5044876;28;20048;-67
2021/04/07 02:30:57;;;;;;;9.90;2.80;;;1.70;99.90;;;;;;5044474;28;20091;-67
2021/04/07 02:33:25;;;;;;;7.70;3.23;;;1.70;99.90;;;;;;5043160;28;20087;-67
2021/04/07 02:35:51;;;;;;;5.70;2.50;;;1.60;99.90;;;;;;5044841;28;20060;-67
2021/04/07 02:38:18;;;;;;;5.53;2.27;;;1.60;99.90;;;;;;5046720;28;20432;-68
2021/04/07 02:40:45;;;;;;;7.33;2.50;;;1.70;99.90;;;;;;4962502;28;20111;-68
2021/04/07 02:43:11;;;;;;;10.77;3.30;;;1.70;99.90;;;;;;4949632;28;20076;-68
2021/04/07 02:45:38;;;;;;;7.07;2.67;;;1.60;99.90;;;;;;4969781;28;21558;-68
2021/04/07 02:48:05;;;;;;;4.97;2.43;;;1.80;99.90;;;;;;4954154;28;20053;-68
2021/04/07 02:50:33;;;;;;;7.90;2.93;;;1.70;99.90;;;;;;4953606;28;20077;-67
2021/04/07 02:52:59;;;;;;;6.27;2.40;;;1.60;99.90;;;;;;4957834;28;20084;-68
2021/04/07 02:55:25;;;;;;;7.07;2.60;;;1.70;99.90;;;;;;4966996;28;20083;-68
2021/04/07 02:57:52;;;;;;;8.47;3.27;;;1.80;99.90;;;;;;5023218;28;20053;-68
2021/04/07 03:00:19;;;;;;;6.43;2.47;;;1.80;99.90;;;;;;5024962;28;20092;-67
2021/04/07 03:02:46;;;;;;;10.07;3.53;;;1.70;99.90;;;;;;5028461;28;20045;-67
2021/04/07 03:05:13;;;;;;;6.50;2.30;;;1.40;99.90;;;;;;5036815;28;20568;-68
2021/04/07 03:07:41;;;;;;;7.93;2.53;;;1.60;99.90;;;;;;5047024;28;20440;-68
2021/04/07 03:10:09;;;;;;;4.60;2.10;;;1.60;99.90;;;;;;5044013;28;20049;-68
2021/04/07 03:12:37;;;;;;;5.17;2.23;;;1.60;99.90;;;;;;5038628;28;20056;-67
2021/04/07 03:15:05;;;;;;;9.17;2.50;;;1.50;99.90;;;;;;5046282;28;20123;-67
2021/04/07 03:17:32;;;;;;;11.30;3.00;;;1.40;99.90;;;;;;5039990;28;20085;-68
2021/04/07 03:19:58;;;;;;;8.23;2.67;;;1.40;99.90;;;;;;4962279;28;20087;-68
2021/04/07 03:22:25;;;;;;;9.10;2.50;;;1.30;99.90;;;;;;4958778;28;20092;-67
2021/04/07 03:24:52;;;;;;;7.97;2.87;;;1.20;99.90;;;;;;4949854;28;20085;-68
2021/04/07 03:27:18;;;;;;;7.93;2.60;;;1.30;99.90;;;;;;4955043;28;20087;-67
2021/04/07 03:29:45;;;;;;;9.10;3.00;;;1.30;99.90;;;;;;4956666;28;20080;-69
2021/04/07 03:32:11;;;;;;;6.73;2.70;;;1.40;99.90;;;;;;5024376;28;20501;-68
2021/04/07 03:34:38;;;;;;;8.23;2.90;;;1.50;99.90;;;;;;5022608;28;20162;-67
2021/04/07 03:37:04;;;;;;;8.23;3.50;;;1.30;99.90;;;;;;5024382;28;20092;-68
2021/04/07 03:39:31;;;;;;;7.70;2.93;;;1.30;99.90;;;;;;4973013;28;20091;-68
2021/04/07 03:41:58;;;;;;;7.57;3.03;;;1.40;99.90;;;;;;4960332;28;20060;-68
2021/04/07 03:44:25;;;;;;;9.20;3.17;;;1.50;99.90;;;;;;4962939;28;20045;-68
2021/04/07 03:46:54;;;;;;;7.10;3.03;;;1.50;99.90;;;;;;4983863;28;20081;-67
2021/04/07 03:49:21;;;;;;;10.37;3.60;;;1.40;99.90;;;;;;4968791;28;20045;-67
2021/04/07 03:51:47;;;;;;;10.40;3.47;;;1.50;99.90;;;;;;4945829;28;20092;-68
2021/04/07 03:54:14;;;;;;;10.27;3.50;;;1.40;99.90;;;;;;4961739;28;20064;-68
2021/04/07 03:56:41;;;;;;;9.37;3.77;;;1.30;99.90;;;;;;4958111;28;20927;-68
2021/04/07 03:59:16;;;;;;;10.00;3.60;;;1.30;99.90;;;;;;4960756;28;20049;-67
2021/04/07 04:01:43;;;;;;;9.00;3.27;;;1.30;99.90;;;;;;4962662;28;20132;-68
2021/04/07 04:04:10;;;;;;;8.33;3.57;;;1.40;99.90;;;;;;4957440;28;20365;-68
2021/04/07 04:06:36;;;;;;;8.60;3.40;;;1.30;99.90;;;;;;4958354;28;20520;-68
2021/04/07 04:09:03;;;;;;;9.20;3.57;;;1.30;99.90;;;;;;4957476;28;20055;-68
2021/04/07 04:11:30;;;;;;;9.17;2.73;;;1.30;99.90;;;;;;4962779;28;20049;-68
2021/04/07 04:13:56;;;;;;;7.47;3.30;;;1.30;99.90;;;;;;4961512;28;20084;-68
2021/04/07 04:16:24;;;;;;;8.80;3.63;;;1.20;99.90;;;;;;4960780;28;20064;-68
2021/04/07 04:18:50;;;;;;;7.97;3.30;;;1.20;99.90;;;;;;4962251;28;20145;-68
2021/04/07 04:21:17;;;;;;;8.57;3.40;;;1.30;99.90;;;;;;4955932;28;20136;-67
2021/04/07 04:23:43;;;;;;;8.50;3.13;;;1.20;99.90;;;;;;4959171;28;20085;-68
2021/04/07 04:26:10;;;;;;;7.77;2.83;;;1.20;99.90;;;;;;4958143;28;20658;-67
2021/04/07 04:28:37;;;;;;;7.30;2.63;;;1.20;99.90;;;;;;4998322;28;20084;-68
2021/04/07 04:31:03;;;;;;;9.03;3.37;;;1.20;99.90;;;;;;5024178;28;20061;-68
2021/04/07 04:33:31;;;;;;;9.47;4.03;;;1.20;99.90;;;;;;5025587;28;20049;-68
2021/04/07 04:35:58;;;;;;;10.40;3.20;;;1.10;99.90;;;;;;5022492;28;20103;-67
2021/04/07 04:38:25;;;;;;;7.53;3.20;;;1.10;99.90;;;;;;5012414;28;20061;-67
2021/04/07 04:40:52;;;;;;;10.77;4.00;;;1.00;99.90;;;;;;4957512;28;21877;-68
2021/04/07 04:43:18;;;;;;;10.90;3.67;;;1.10;99.90;;;;;;4956527;28;20053;-67
2021/04/07 04:45:45;;;;;;;9.23;4.03;;;1.10;99.90;;;;;;4959506;28;20049;-67
2021/04/07 04:48:12;;;;;;;10.23;4.47;;;1.10;99.90;;;;;;4963394;28;20493;-67
2021/04/07 04:50:39;;;;;;;13.60;4.50;;;1.10;99.90;;;;;;4992072;28;20080;-67
2021/04/07 04:53:05;;;;;;;9.77;4.17;;;1.20;99.90;;;;;;5020903;28;20096;-68
2021/04/07 04:55:32;;;;;;;11.77;3.90;;;1.20;99.90;;;;;;5026612;28;20045;-67
2021/04/07 04:57:58;;;;;;;12.00;4.83;;;1.10;99.90;;;;;;5023720;28;20053;-68
2021/04/07 05:00:25;;;;;;;10.67;4.80;;;1.10;99.90;;;;;;5027575;28;20528;-67
2021/04/07 05:02:51;;;;;;;10.03;5.07;;;1.10;99.90;;;;;;5026927;28;20537;-68
2021/04/07 05:05:18;;;;;;;15.13;5.27;;;1.20;99.90;;;;;;5027871;28;20085;-67
2021/04/07 05:07:45;;;;;;;10.07;4.33;;;1.20;99.90;;;;;;5027826;28;20076;-67
2021/04/07 05:10:12;;;;;;;13.03;5.10;;;1.20;99.90;;;;;;5028948;28;20053;-67
2021/04/07 05:12:39;;;;;;;11.10;5.20;;;1.20;99.90;;;;;;5027601;28;20049;-67
2021/04/07 05:15:07;;;;;;;10.73;4.90;;;1.30;99.90;;;;;;5028216;28;20046;-67
2021/04/07 05:17:36;;;;;;;11.07;4.80;;;1.10;99.90;;;;;;5030900;28;20057;-68
2021/04/07 05:20:05;;;;;;;11.77;4.70;;;1.10;99.90;;;;;;4989665;28;20053;-68
2021/04/07 05:22:31;;;;;;;13.70;4.87;;;1.30;99.90;;;;;;4968480;28;20088;-68
2021/04/07 05:24:59;;;;;;;12.53;5.03;;;1.30;99.90;;;;;;4970146;28;20072;-68
2021/04/07 05:27:25;;;;;;;11.07;4.20;;;1.20;99.90;;;;;;4982939;28;20049;-68
2021/04/07 05:29:52;;;;;;;14.53;5.73;;;1.10;99.90;;;;;;4976917;28;20116;-68
2021/04/07 05:32:18;;;;;;;10.83;4.53;;;1.20;99.90;;;;;;4964551;28;20138;-68
2021/04/07 05:34:45;;;;;;;10.67;5.13;;;1.10;99.90;;;;;;4964840;28;20049;-67
2021/04/07 05:37:11;;;;;;;13.13;5.17;;;1.20;99.90;;;;;;4970759;28;20505;-68
2021/04/07 05:39:38;;;;;;;11.00;5.00;;;1.20;99.90;;;;;;4974260;28;20107;-68
2021/04/07 05:42:06;;;;;;;13.80;4.70;;;1.30;99.90;;;;;;4970632;28;20508;-67
2021/04/07 05:44:33;;;;;;;13.17;4.73;;;1.40;99.90;;;;;;4977297;28;20152;-67
2021/04/07 05:46:59;;;;;;;12.93;5.10;;;1.50;99.90;;;;;;5046051;28;20049;-67
2021/04/07 05:49:27;;;;;;;11.27;4.10;;;1.50;99.90;;;;;;5043739;28;20049;-68
2021/04/07 05:51:53;;;;;;;9.57;4.07;;;1.50;99.90;;;;;;4973758;28;20053;-68
2021/04/07 05:54:20;;;;;;;15.07;4.67;;;1.50;99.90;;;;;;4976059;28;20053;-68
2021/04/07 05:56:46;;;;;;;9.70;4.47;;;1.50;99.90;;;;;;4970814;28;20046;-68
2021/04/07 05:59:14;;;;;;;10.57;4.57;;;1.50;99.90;;;;;;4973366;28;20429;-68
2021/04/07 06:01:41;;;;;;;9.90;4.90;;;1.60;99.90;;;;;;4978641;28;20072;-67
2021/04/07 06:04:07;;;;;;;10.33;4.17;;;1.60;99.90;;;;;;5297477;22;20124;-69
2021/04/07 06:06:34;;;;;;;13.27;4.70;;;1.70;99.90;;;;;;5043764;28;20887;-69
2021/04/07 06:09:01;;;;;;;14.97;4.50;;;1.60;99.90;;;;;;5049614;28;20146;-68
2021/04/07 06:11:27;;;;;;;10.30;4.63;;;1.70;99.90;;;;;;5049666;28;20051;-71
2021/04/07 06:13:54;;;;;;;10.73;4.07;;;1.80;99.90;;;;;;5045167;28;20639;-69
2021/04/07 06:16:21;;;;;;;15.30;4.47;;;1.70;99.90;;;;;;5045349;28;20056;-70
2021/04/07 06:18:48;;;;;;;13.87;3.93;;;1.70;99.90;;;;;;5046903;28;20059;-70
2021/04/07 06:21:14;;;;;;;15.07;3.93;;;1.50;99.90;;;;;;5051730;28;20048;-70
2021/04/07 06:23:41;;;;;;;9.90;3.57;;;1.50;99.90;;;;;;5076688;28;20044;-69
2021/04/07 06:26:07;;;;;;;12.40;3.93;;;1.60;99.90;;;;;;5088120;28;20082;-69
2021/04/07 06:28:34;;;;;;;16.13;5.27;;;1.50;99.90;;;;;;5088346;28;20438;-69
2021/04/07 06:31:01;;;;;;;10.33;4.10;;;1.50;99.90;;;;;;5085394;28;20051;-69
2021/04/07 06:33:30;;;;;;;13.27;4.53;;;1.50;99.90;;;;;;5098310;28;20073;-69
2021/04/07 06:35:58;;;;;;;12.67;3.73;;;1.60;99.90;;;;;;5094885;28;20542;-69
2021/04/07 06:38:25;;;;;;;12.23;4.60;;;1.50;99.90;;;;;;5088737;28;20071;-69
2021/04/07 06:40:53;;;;;;;15.83;5.57;;;1.60;99.90;;;;;;5065743;28;20475;-69
2021/04/07 06:43:21;;;;;;;13.17;4.33;;;1.80;99.90;;;;;;5086756;28;20047;-69
2021/04/07 06:45:48;;;;;;;10.83;4.60;;;1.90;99.90;;;;;;5088014;28;20280;-70
2021/04/07 06:48:16;;;;;;;10.57;4.07;;;2.10;99.90;;;;;;5087135;28;20055;-69
2021/04/07 06:50:44;;;;;;;19.57;4.80;;;2.20;99.90;;;;;;5087509;28;20083;-69
2021/04/07 06:53:11;;;;;;;12.70;4.17;;;2.30;99.90;;;;;;5084939;28;20502;-69
2021/04/07 06:55:39;;;;;;;11.53;3.83;;;2.20;99.90;;;;;;5085613;28;20385;-72
2021/04/07 06:58:09;;;;;;;11.07;4.20;;;2.20;99.90;;;;;;5085943;28;20249;-72
2021/04/07 07:00:37;;;;;;;11.67;3.80;;;2.20;99.90;;;;;;5086049;28;20063;-69
2021/04/07 07:03:06;;;;;;;10.87;3.97;;;2.20;99.90;;;;;;5089563;28;20040;-68
2021/04/07 07:05:36;;;;;;;12.33;3.60;;;2.30;99.90;;;;;;5105404;28;20079;-68
2021/04/07 07:08:05;;;;;;;12.77;3.90;;;2.40;99.90;;;;;;5088234;28;20130;-70
2021/04/07 07:10:39;;;;;;;11.60;3.10;;;2.50;99.90;;;;;;5094910;28;20075;-71
2021/04/07 07:13:08;;;;;;;13.00;4.23;;;2.80;99.90;;;;;;5054260;28;20087;-70
2021/04/07 07:15:35;;;;;;;10.23;3.27;;;3.00;99.90;;;;;;5052889;28;20070;-69
2021/04/07 07:18:01;;;;;;;9.10;3.20;;;3.10;99.90;;;;;;5039459;28;20048;-70
2021/04/07 07:20:30;;;;;;;10.67;3.07;;;3.40;99.90;;;;;;5029628;28;20087;-68
2021/04/07 07:22:57;;;;;;;10.13;3.07;;;3.50;99.90;;;;;;5024395;28;20059;-68
2021/04/07 07:25:25;;;;;;;9.80;3.40;;;3.30;99.90;;;;;;5027414;28;20040;-64
2021/04/07 07:27:58;;;;;;;14.70;3.50;;;3.30;99.90;;;;;;5018961;28;20201;-65
2021/04/07 07:30:33;;;;;;;11.97;3.23;;;3.40;99.90;;;;;;5024496;28;20052;-67
2021/04/07 07:33:00;;;;;;;9.40;3.23;;;3.50;99.90;;;;;;5024592;28;20170;-68
2021/04/07 07:35:27;;;;;;;11.27;3.07;;;3.50;99.90;;;;;;5027323;28;20051;-67
2021/04/07 07:38:00;;;;;;;8.97;2.90;;;3.60;99.90;;;;;;5086589;28;20058;-69
2021/04/07 07:40:28;;;;;;;11.33;2.60;;;3.50;99.90;;;;;;5053081;28;20197;-70
2021/04/07 07:42:55;;;;;;;11.87;2.87;;;3.70;99.90;;;;;;5018846;28;20527;-69
2021/04/07 07:45:26;;;;;;;13.37;2.97;;;3.50;99.90;;;;;;5025325;28;20040;-68
2021/04/07 07:48:01;;;;;;;10.93;2.73;;;3.60;99.90;;;;;;5015832;28;20607;-70
2021/04/07 07:50:35;;;;;;;8.00;2.63;;;3.50;99.90;;;;;;5011671;28;20043;-71
2021/04/07 07:53:15;;;;;;;10.53;2.67;;;3.70;99.90;;;;;;5008646;28;20071;-71
2021/04/07 07:55:43;;;;;;;11.57;3.37;;;3.30;99.90;;;;;;5057795;28;20075;-71
2021/04/07 07:58:09;;;;;;;9.17;2.43;;;3.20;99.90;;;;;;5039272;28;20848;-72
2021/04/07 08:00:39;;;;;;;7.27;2.50;;;3.50;99.90;;;;;;5027054;28;21331;-70
2021/04/07 08:03:08;;;;;;;8.03;3.20;;;3.30;99.90;;;;;;5037387;28;20482;-70
2021/04/07 08:05:35;;;;;;;8.97;2.60;;;3.10;99.90;;;;;;5084817;28;20040;-68
2021/04/07 08:08:03;;;;;;;11.63;2.70;;;3.20;99.90;;;;;;5083343;28;20134;-70
2021/04/07 08:10:31;;;;;;;7.37;2.70;;;3.40;99.90;;;;;;5082789;28;20043;-72
2021/04/07 08:13:01;;;;;;;7.07;3.00;;;3.50;99.90;;;;;;5101809;28;20525;-69
2021/04/07 08:15:29;;;;;;;5.30;2.77;;;3.40;99.90;;;;;;5098543;28;20126;-70
2021/04/07 08:17:55;;;;;;;7.33;2.77;;;3.30;99.90;;;;;;5084572;28;20059;-69
2021/04/07 08:20:23;;;;;;;8.33;2.83;;;3.40;99.90;;;;;;5084461;28;20131;-69
2021/04/07 08:22:52;;;;;;;7.83;2.33;;;3.30;99.90;;;;;;5086013;28;20048;-71
2021/04/07 08:25:20;;;;;;;13.17;3.07;;;2.90;99.90;;;;;;5104724;28;20051;-73
2021/04/07 08:27:51;;;;;;;9.80;3.17;;;3.00;99.90;;;;;;5096549;28;20180;-69
2021/04/07 08:30:20;;;;;;;11.27;4.47;;;3.10;99.90;;;;;;5090939;28;20136;-69
2021/04/07 08:32:50;;;;;;;11.90;4.13;;;3.40;99.90;;;;;;5048475;28;20128;-71
2021/04/07 08:35:18;;;;;;;8.67;3.37;;;3.30;99.90;;;;;;5031718;28;20060;-72
2021/04/07 08:37:56;;;;;;;10.67;3.03;;;3.40;99.90;;;;;;5032970;28;20063;-72
2021/04/07 08:40:24;;;;;;;6.53;3.27;;;3.00;99.90;;;;;;5026453;28;20040;-70
2021/04/07 08:42:52;;;;;;;8.67;3.43;;;3.20;99.90;;;;;;5026465;28;20044;-70
2021/04/07 08:45:20;;;;;;;9.67;3.77;;;3.20;99.90;;;;;;5023954;28;20051;-72
2021/04/07 08:48:01;;;;;;;9.10;3.97;;;3.10;99.90;;;;;;5022566;28;20714;-70
2021/04/07 08:50:30;;;;;;;8.77;3.17;;;2.70;99.90;;;;;;5092536;28;20530;-71
2021/04/07 08:52:57;;;;;;;10.50;3.67;;;2.70;99.90;;;;;;5085491;28;20081;-71
2021/04/07 08:55:26;;;;;;;7.23;3.30;;;2.70;99.90;;;;;;5088028;28;20407;-69
2021/04/07 08:58:00;;;;;;;12.63;3.37;;;2.80;99.90;;;;;;5085907;28;20458;-70
2021/04/07 09:00:32;;;;;;;6.63;3.30;;;2.80;99.90;;;;;;5087876;28;20052;-69
2021/04/07 09:03:08;;;;;;;11.70;3.40;;;3.00;99.90;;;;;;5064361;28;20059;-69
2021/04/07 09:05:37;;;;;;;7.53;2.50;;;3.10;99.90;;;;;;5081683;28;20039;-68
2021/04/07 09:08:05;;;;;;;9.57;3.40;;;3.60;99.90;;;;;;5088862;28;20197;-68
2021/04/07 09:10:40;;;;;;;6.63;2.70;;;4.30;99.90;;;;;;5086869;28;20131;-68
2021/04/07 09:13:08;;;;;;;7.10;2.37;;;5.00;99.90;;;;;;5083555;28;20056;-69
2021/04/07 09:15:47;;;;;;;6.07;3.10;;;4.40;99.90;;;;;;5084757;28;20058;-73
2021/04/07 09:18:16;;;;;;;8.50;2.53;;;4.40;99.90;;;;;;5087628;28;20048;-70
2021/04/07 09:20:45;;;;;;;9.33;2.67;;;3.80;99.90;;;;;;5087405;28;20155;-71
2021/04/07 09:23:17;;;;;;;6.00;2.67;;;3.80;99.90;;;;;;5092840;28;20047;-71
2021/04/07 09:25:52;;;;;;;8.30;2.83;;;3.60;99.90;;;;;;5086027;28;20056;-70
2021/04/07 09:28:30;;;;;;;10.73;4.70;;;3.70;99.90;;;;;;5086955;28;20093;-70
2021/04/07 09:31:05;;;;;;;10.93;2.10;;;3.70;99.90;;;;;;5085889;28;20078;-70
2021/04/07 09:33:32;;;;;;;9.13;3.13;;;3.70;99.90;;;;;;5093190;28;20044;-70
2021/04/07 09:36:00;;;;;;;8.27;3.13;;;3.50;99.90;;;;;;5095942;28;20059;-72
2021/04/07 09:38:28;;;;;;;9.80;3.07;;;3.90;99.90;;;;;;5086591;28;20059;-70
2021/04/07 09:41:07;;;;;;;4.60;2.30;;;4.20;99.90;;;;;;5085946;28;20097;-70
2021/04/07 09:43:34;;;;;;;10.17;2.90;;;4.20;99.90;;;;;;5085653;28;20080;-70
2021/04/07 09:46:01;;;;;;;8.60;3.70;;;4.30;99.90;;;;;;5086464;28;20040;-70
2021/04/07 09:48:37;;;;;;;5.37;2.00;;;4.70;99.90;;;;;;5086343;28;20048;-68
2021/04/07 09:51:21;;;;;;;6.27;1.70;;;4.20;99.90;;;;;;5086308;28;20473;-70
2021/04/07 09:53:48;;;;;;;8.87;2.47;;;3.70;99.90;;;;;;5088329;28;20158;-68
2021/04/07 09:56:14;;;;;;;6.03;2.00;;;3.90;99.90;;;;;;5085693;28;20052;-68
2021/04/07 09:58:45;;;;;;;11.57;2.43;;;3.90;99.90;;;;;;5102680;28;20047;-67
2021/04/07 10:01:14;;;;;;;6.10;2.03;;;4.10;99.90;;;;;;5090214;28;20058;-69
2021/04/07 10:03:48;;;;;;;4.37;1.90;;;4.10;99.90;;;;;;5085439;28;20071;-69
2021/04/07 10:06:22;;;;;;;8.90;2.53;;;4.00;99.90;;;;;;5087530;28;20063;-71
2021/04/07 10:09:08;;;;;;;7.70;2.53;;;4.30;99.90;;;;;;5084910;28;20411;-70
2021/04/07 10:11:49;;;;;;;7.30;2.07;;;4.20;99.90;;;;;;5088873;28;20044;-71
2021/04/07 10:14:17;;;;;;;7.63;1.80;;;4.10;99.90;;;;;;5077849;28;20059;-70
2021/04/07 10:16:44;;;;;;;11.00;2.60;;;3.70;99.90;;;;;;5083707;28;20066;-70
2021/04/07 10:19:13;;;;;;;6.90;1.77;;;3.80;99.90;;;;;;5083978;28;20121;-70
2021/04/07 10:21:42;;;;;;;9.10;2.13;;;4.20;99.90;;;;;;5077737;28;20048;-69
2021/04/07 10:24:10;;;;;;;4.17;1.70;;;4.20;99.90;;;;;;5079280;28;20059;-70
2021/04/07 10:26:42;;;;;;;6.40;2.57;;;3.90;99.90;;;;;;5082383;28;20078;-70
2021/04/07 10:29:09;;;;;;;6.30;1.87;;;3.90;99.90;;;;;;5085520;28;20134;-70
2021/04/07 10:31:36;;;;;;;3.87;1.47;;;4.00;99.90;;;;;;5085428;28;20052;-70
2021/04/07 10:34:05;;;;;;;5.17;1.70;;;4.00;99.90;;;;;;5084884;28;20620;-70
2021/04/07 10:36:32;;;;;;;10.43;1.90;;;4.20;99.90;;;;;;5087687;28;20484;-70
2021/04/07 10:39:00;;;;;;;5.53;1.70;;;4.20;99.90;;;;;;5084324;28;20991;-70
2021/04/07 10:41:27;;;;;;;7.30;1.90;;;4.10;99.90;;;;;;5085616;28;20168;-69
2021/04/07 10:43:53;;;;;;;8.03;2.03;;;3.70;99.90;;;;;;5095185;28;20043;-69
2021/04/07 10:46:30;;;;;;;9.03;2.40;;;3.70;99.90;;;;;;5086766;28;20090;-68
2021/04/07 10:48:58;;;;;;;3.55;1.52;;;3.50;99.90;;;;;;5085014;28;20055;-70
2021/04/07 10:51:26;;;;;;;3.37;1.00;;;3.40;99.90;;;;;;5083760;28;20047;-70
2021/04/07 10:53:57;;;;;;;9.37;2.67;;;3.10;99.90;;;;;;5096261;28;20388;-68
2021/04/07 10:56:24;;;;;;;8.20;2.47;;;2.50;99.90;;;;;;5104787;28;20458;-68
2021/04/07 10:58:55;;;;;;;7.20;2.87;;;2.20;99.90;;;;;;5105913;28;20062;-71
2021/04/07 11:01:33;;;;;;;7.47;2.07;;;2.30;99.90;;;;;;5102954;28;20116;-70
2021/04/07 11:04:10;;;;;;;6.00;2.00;;;2.30;99.90;;;;;;5103312;28;20129;-74
2021/04/07 11:06:38;;;;;;;8.23;2.60;;;2.40;99.90;;;;;;5089995;28;20242;-71
2021/04/07 11:09:05;;;;;;;9.43;2.57;;;2.70;99.90;;;;;;5084265;28;20455;-70
2021/04/07 11:11:32;;;;;;;7.23;2.37;;;2.70;99.90;;;;;;5084430;28;20048;-71
2021/04/07 11:13:59;;;;;;;7.83;1.77;;;2.90;99.90;;;;;;5085275;28;20079;-69
2021/04/07 11:16:31;;;;;;;5.03;2.03;;;2.60;99.90;;;;;;5085942;28;20531;-70
2021/04/07 11:18:57;;;;;;;6.00;2.00;;;2.80;99.90;;;;;;5083921;28;20083;-70
2021/04/07 11:21:24;;;;;;;5.23;2.33;;;2.80;99.90;;;;;;5082990;28;20503;-71
2021/04/07 11:23:51;;;;;;;7.70;2.50;;;3.10;99.90;;;;;;5082479;28;20048;-70
2021/04/07 11:26:19;;;;;;;9.57;2.73;;;3.10;99.90;;;;;;5087014;28;20072;-69
2021/04/07 11:28:46;;;;;;;4.03;1.77;;;3.30;99.90;;;;;;5088655;28;20054;-69
2021/04/07 11:31:14;;;;;;;8.87;2.23;;;2.90;99.90;;;;;;5085373;28;20052;-70
2021/04/07 11:33:45;;;;;;;5.57;2.43;;;2.60;99.90;;;;;;5084223;28;20067;-71
2021/04/07 11:36:27;;;;;;;6.93;2.27;;;2.70;99.90;;;;;;5082014;28;20048;-70
2021/04/07 11:38:58;;;;;;;7.73;2.60;;;3.00;99.90;;;;;;5082656;28;20496;-71
2021/04/07 11:44:29;;;;;;;7.40;2.97;;;2.90;99.90;;;;;;5006931;28;20041;-70
2021/04/07 11:46:56;;;;;;;6.07;2.83;;;2.90;99.90;;;;;;5075410;28;20667;-70
2021/04/07 11:49:23;;;;;;;9.73;3.00;;;3.00;99.90;;;;;;5088160;28;20113;-70
2021/04/07 11:51:49;;;;;;;7.23;3.10;;;2.90;99.90;;;;;;5082566;28;20048;-70
2021/04/07 11:54:17;;;;;;;6.87;3.17;;;3.00;99.90;;;;;;5083369;28;20483;-70
2021/04/07 11:56:45;;;;;;;12.30;3.33;;;3.20;99.90;;;;;;5087226;28;20499;-70
2021/04/07 11:59:12;;;;;;;11.10;3.77;;;3.40;99.90;;;;;;5087717;28;20051;-70
2021/04/07 12:01:39;;;;;;;7.47;2.63;;;3.70;99.90;;;;;;5085368;28;20044;-71
2021/04/07 12:04:05;;;;;;;6.70;3.00;;;4.00;99.90;;;;;;5280521;22;20023;-70
2021/04/07 12:06:32;;;;;;;10.30;3.30;;;4.00;99.90;;;;;;5014113;28;20537;-71
2021/04/07 12:08:59;;;;;;;10.57;3.37;;;3.90;99.90;;;;;;4997341;28;20618;-70
2021/04/07 12:11:27;;;;;;;6.17;3.10;;;4.20;99.90;;;;;;4995698;28;20136;-71
2021/04/07 12:13:54;;;;;;;7.67;3.47;;;4.00;99.90;;;;;;4988955;28;20210;-70
2021/04/07 12:16:21;;;;;;;10.27;4.00;;;4.00;99.90;;;;;;4997247;28;20315;-70
2021/04/07 12:18:47;;;;;;;7.67;3.50;;;3.90;99.90;;;;;;4996354;28;20053;-71
2021/04/07 12:21:16;;;;;;;12.13;4.57;;;3.90;99.90;;;;;;4995177;28;20859;-70
2021/04/07 12:23:44;;;;;;;8.97;4.33;;;3.90;99.90;;;;;;4994722;28;20144;-70
2021/04/07 12:26:14;;;;;;;9.30;4.47;;;3.30;99.90;;;;;;5035608;28;20155;-70
2021/04/07 12:28:42;;;;;;;9.37;4.93;;;3.30;99.90;;;;;;5048990;28;20135;-70
2021/04/07 12:31:10;;;;;;;9.30;4.37;;;3.30;99.90;;;;;;5044749;28;20049;-71
2021/04/07 12:33:36;;;;;;;8.43;3.93;;;3.30;99.90;;;;;;5049582;28;20492;-71
2021/04/07 12:36:03;;;;;;;9.60;4.50;;;3.50;99.90;;;;;;5052301;28;20045;-71
2021/04/07 12:38:32;;;;;;;9.83;4.27;;;3.60;99.90;;;;;;5051725;28;20059;-71
2021/04/07 12:41:00;;;;;;;8.03;4.57;;;3.70;99.90;;;;;;5043843;28;20064;-71
2021/04/07 12:43:26;;;;;;;11.80;4.07;;;3.80;99.90;;;;;;5045197;28;20060;-70
2021/04/07 12:45:54;;;;;;;12.57;5.90;;;3.50;99.90;;;;;;5044620;28;20049;-71
2021/04/07 12:48:20;;;;;;;9.20;4.00;;;3.60;99.90;;;;;;5043290;28;20059;-70
2021/04/07 12:50:48;;;;;;;9.47;4.67;;;3.60;99.90;;;;;;5044272;28;20466;-71
2021/04/07 12:53:14;;;;;;;8.77;4.00;;;3.70;99.90;;;;;;5044165;28;20060;-72
2021/04/07 12:55:41;;;;;;;8.73;4.30;;;3.90;99.90;;;;;;5055997;28;20133;-70
2021/04/07 12:58:09;;;;;;;14.60;3.93;;;4.00;99.90;;;;;;5060209;28;20059;-70
2021/04/07 13:00:36;;;;;;;8.40;4.17;;;3.80;99.90;;;;;;5053119;28;20051;-71
2021/04/07 13:03:04;;;;;;;6.90;2.63;;;4.00;99.90;;;;;;5049686;28;20045;-70